sensor_id;sensor_type;location;lat;lon;timestamp;pressure;altitude;pressure_sealevel;temperature;humidity
22657;BME280;11495;55.610;12.100;2022-07-12T00:00:44;101641.03;;;15.87;0.00
22657;BME280;11495;55.610;12.100;2022-07-12T00:03:09;101650.75;;;15.90;0.00
22657;BME280;11495;55.610;12.100;2022-07-12T00:05:35;101636.31;;;15.88;0.00
22657;BME280;11495;55.610;12.100;2022-07-12T00:08:00;101583.59;;;15.88;0.00
22657;BME280;11495;55.610;12.100;2022-07-12T00:10:26;101396.34;;;15.90;0.00
22657;BME280;11495;55.610;12.100;2022-07-12T00:12:52;101341.69;;;15.91;0.00
22657;BME280;11495;55.610;12.100;2022-07-12T00:15:17;101510.31;;;15.94;0.00
22657;BME280;11495;55.610;12.100;2022-07-12T00:17:43;101634.88;;;15.95;0.00
22657;BME280;11495;55.610;12.100;2022-07-12T00:20:09;101763.31;;;15.96;0.00
22657;BME280;11495;55.610;12.100;2022-07-12T00:22:34;101836.84;;;15.98;0.00
22657;BME280;11495;55.610;12.100;2022-07-12T00:25:00;101887.37;;;15.95;0.00
22657;BME280;11495;55.610;12.100;2022-07-12T00:27:25;101905.16;;;15.89;0.00
22657;BME280;11495;55.610;12.100;2022-07-12T00:29:51;101913.50;;;15.84;0.00
22657;BME280;11495;55.610;12.100;2022-07-12T00:32:16;101923.53;;;15.75;0.00
22657;BME280;11495;55.610;12.100;2022-07-12T00:34:41;101932.69;;;15.70;0.00
22657;BME280;11495;55.610;12.100;2022-07-12T00:37:07;101935.22;;;15.67;0.00
22657;BME280;11495;55.610;12.100;2022-07-12T00:39:32;101945.19;;;15.63;0.00
22657;BME280;11495;55.610;12.100;2022-07-12T00:41:58;101950.19;;;15.56;0.00
22657;BME280;11495;55.610;12.100;2022-07-12T00:44:23;101954.63;;;15.52;0.00
22657;BME280;11495;55.610;12.100;2022-07-12T00:46:49;101955.75;;;15.51;0.00
22657;BME280;11495;55.610;12.100;2022-07-12T00:49:15;101954.91;;;15.45;0.00
22657;BME280;11495;55.610;12.100;2022-07-12T00:51:44;101956.03;;;15.39;0.00
22657;BME280;11495;55.610;12.100;2022-07-12T00:54:09;101962.97;;;15.36;0.00
22657;BME280;11495;55.610;12.100;2022-07-12T00:56:36;101976.03;;;15.31;0.00
22657;BME280;11495;55.610;12.100;2022-07-12T00:59:02;101962.72;;;15.33;0.00
22657;BME280;11495;55.610;12.100;2022-07-12T01:01:28;101960.75;;;15.28;0.00
22657;BME280;11495;55.610;12.100;2022-07-12T01:03:54;101958.00;;;15.28;0.00
22657;BME280;11495;55.610;12.100;2022-07-12T01:06:20;101952.16;;;15.30;0.00
22657;BME280;11495;55.610;12.100;2022-07-12T01:08:45;101944.97;;;15.29;0.00
22657;BME280;11495;55.610;12.100;2022-07-12T01:11:11;101923.38;;;15.31;0.00
22657;BME280;11495;55.610;12.100;2022-07-12T01:13:37;101920.84;;;15.29;0.00
22657;BME280;11495;55.610;12.100;2022-07-12T01:16:05;101905.91;;;15.25;0.00
22657;BME280;11495;55.610;12.100;2022-07-12T01:18:31;101898.97;;;15.28;0.00
22657;BME280;11495;55.610;12.100;2022-07-12T01:21:01;101895.94;;;15.19;0.00
22657;BME280;11495;55.610;12.100;2022-07-12T01:23:28;101888.47;;;15.14;0.00
22657;BME280;11495;55.610;12.100;2022-07-12T01:25:55;101879.88;;;15.16;0.00
22657;BME280;11495;55.610;12.100;2022-07-12T01:28:20;101860.47;;;15.11;0.00
22657;BME280;11495;55.610;12.100;2022-07-12T01:30:47;101859.09;;;15.03;0.00
22657;BME280;11495;55.610;12.100;2022-07-12T01:33:12;101832.78;;;15.01;0.00
22657;BME280;11495;55.610;12.100;2022-07-12T01:35:39;101813.94;;;15.03;0.00
22657;BME280;11495;55.610;12.100;2022-07-12T01:38:05;101785.16;;;14.99;0.00
22657;BME280;11495;55.610;12.100;2022-07-12T01:40:30;101768.53;;;14.99;0.00
22657;BME280;11495;55.610;12.100;2022-07-12T01:42:55;101747.19;;;14.99;0.00
22657;BME280;11495;55.610;12.100;2022-07-12T01:45:21;101715.06;;;14.98;0.00
22657;BME280;11495;55.610;12.100;2022-07-12T01:47:47;101699.81;;;15.01;0.00
22657;BME280;11495;55.610;12.100;2022-07-12T01:50:14;101677.66;;;14.96;0.00
22657;BME280;11495;55.610;12.100;2022-07-12T01:52:41;101651.13;;;14.89;0.00
22657;BME280;11495;55.610;12.100;2022-07-12T01:55:08;101638.94;;;14.80;0.00
22657;BME280;11495;55.610;12.100;2022-07-12T01:57:34;101614.31;;;14.79;0.00
22657;BME280;11495;55.610;12.100;2022-07-12T02:00:01;101594.69;;;14.70;0.00
22657;BME280;11495;55.610;12.100;2022-07-12T02:02:28;101585.84;;;14.63;0.00
22657;BME280;11495;55.610;12.100;2022-07-12T02:04:56;101577.31;;;14.54;0.00
22657;BME280;11495;55.610;12.100;2022-07-12T02:07:23;101574.53;;;14.65;0.00
22657;BME280;11495;55.610;12.100;2022-07-12T02:09:49;101566.53;;;14.58;0.00
22657;BME280;11495;55.610;12.100;2022-07-12T02:12:14;101549.63;;;14.54;0.00
22657;BME280;11495;55.610;12.100;2022-07-12T02:14:40;101549.94;;;14.48;0.00
22657;BME280;11495;55.610;12.100;2022-07-12T02:17:05;101530.56;;;14.48;0.00
22657;BME280;11495;55.610;12.100;2022-07-12T02:19:30;101518.94;;;14.46;0.00
22657;BME280;11495;55.610;12.100;2022-07-12T02:21:56;101507.87;;;14.51;0.00
22657;BME280;11495;55.610;12.100;2022-07-12T02:24:21;101497.31;;;14.53;0.00
22657;BME280;11495;55.610;12.100;2022-07-12T02:26:46;101479.88;;;14.57;0.00
22657;BME280;11495;55.610;12.100;2022-07-12T02:29:12;101451.91;;;14.59;0.00
22657;BME280;11495;55.610;12.100;2022-07-12T02:31:38;101432.53;;;14.59;0.00
22657;BME280;11495;55.610;12.100;2022-07-12T02:34:03;101414.00;;;14.54;0.00
22657;BME280;11495;55.610;12.100;2022-07-12T02:36:29;101406.25;;;14.56;0.00
22657;BME280;11495;55.610;12.100;2022-07-12T02:38:55;101384.94;;;14.57;0.00
22657;BME280;11495;55.610;12.100;2022-07-12T02:41:20;101380.22;;;14.57;0.00
22657;BME280;11495;55.610;12.100;2022-07-12T02:43:46;101364.66;;;14.61;0.00
22657;BME280;11495;55.610;12.100;2022-07-12T02:46:12;101344.75;;;14.59;0.00
22657;BME280;11495;55.610;12.100;2022-07-12T02:48:39;101332.56;;;14.60;0.00
22657;BME280;11495;55.610;12.100;2022-07-12T02:51:06;101335.09;;;14.57;0.00
22657;BME280;11495;55.610;12.100;2022-07-12T02:53:33;101324.84;;;14.57;0.00
22657;BME280;11495;55.610;12.100;2022-07-12T02:55:58;101315.72;;;14.57;0.00
22657;BME280;11495;55.610;12.100;2022-07-12T02:58:24;101304.91;;;14.55;0.00
22657;BME280;11495;55.610;12.100;2022-07-12T03:00:49;101297.44;;;14.56;0.00
22657;BME280;11495;55.610;12.100;2022-07-12T03:03:15;101287.25;;;14.51;0.00
22657;BME280;11495;55.610;12.100;2022-07-12T03:05:41;101281.47;;;14.48;0.00
22657;BME280;11495;55.610;12.100;2022-07-12T03:08:08;101278.13;;;14.51;0.00
22657;BME280;11495;55.610;12.100;2022-07-12T03:10:34;101272.59;;;14.51;0.00
22657;BME280;11495;55.610;12.100;2022-07-12T03:13:00;101271.25;;;14.48;0.00
22657;BME280;11495;55.610;12.100;2022-07-12T03:15:27;101267.63;;;14.48;0.00
22657;BME280;11495;55.610;12.100;2022-07-12T03:17:53;101257.41;;;14.43;0.00
22657;BME280;11495;55.610;12.100;2022-07-12T03:20:18;101263.19;;;14.47;0.00
22657;BME280;11495;55.610;12.100;2022-07-12T03:22:44;101253.25;;;14.46;0.00
22657;BME280;11495;55.610;12.100;2022-07-12T03:25:12;101247.97;;;14.44;0.00
22657;BME280;11495;55.610;12.100;2022-07-12T03:27:38;101251.03;;;14.43;0.00
22657;BME280;11495;55.610;12.100;2022-07-12T03:30:04;101246.34;;;14.43;0.00
22657;BME280;11495;55.610;12.100;2022-07-12T03:32:29;101243.87;;;14.42;0.00
22657;BME280;11495;55.610;12.100;2022-07-12T03:34:55;101242.47;;;14.39;0.00
22657;BME280;11495;55.610;12.100;2022-07-12T03:37:20;101240.84;;;14.38;0.00
22657;BME280;11495;55.610;12.100;2022-07-12T03:39:45;101225.06;;;14.39;0.00
22657;BME280;11495;55.610;12.100;2022-07-12T03:42:11;101228.91;;;14.43;0.00
22657;BME280;11495;55.610;12.100;2022-07-12T03:44:37;101225.00;;;14.44;0.00
22657;BME280;11495;55.610;12.100;2022-07-12T03:47:03;101229.72;;;14.43;0.00
22657;BME280;11495;55.610;12.100;2022-07-12T03:49:28;101225.00;;;14.44;0.00
22657;BME280;11495;55.610;12.100;2022-07-12T03:51:54;101213.13;;;14.43;0.00
22657;BME280;11495;55.610;12.100;2022-07-12T03:54:19;101208.41;;;14.44;0.00
22657;BME280;11495;55.610;12.100;2022-07-12T03:56:44;101207.59;;;14.48;0.00
22657;BME280;11495;55.610;12.100;2022-07-12T03:59:28;101201.97;;;14.53;0.00
22657;BME280;11495;55.610;12.100;2022-07-12T04:01:54;101202.47;;;14.60;0.00
22657;BME280;11495;55.610;12.100;2022-07-12T04:04:19;101190.16;;;14.72;0.00
22657;BME280;11495;55.610;12.100;2022-07-12T04:06:45;101183.13;;;14.79;0.00
22657;BME280;11495;55.610;12.100;2022-07-12T04:09:11;101170.88;;;14.85;0.00
22657;BME280;11495;55.610;12.100;2022-07-12T04:11:37;101167.47;;;14.94;0.00
22657;BME280;11495;55.610;12.100;2022-07-12T04:14:02;101163.72;;;15.03;0.00
22657;BME280;11495;55.610;12.100;2022-07-12T04:16:28;101147.56;;;15.10;0.00
22657;BME280;11495;55.610;12.100;2022-07-12T04:18:55;101137.78;;;15.18;0.00
22657;BME280;11495;55.610;12.100;2022-07-12T04:21:21;101132.37;;;15.27;0.00
22657;BME280;11495;55.610;12.100;2022-07-12T04:23:46;101125.88;;;15.36;0.00
22657;BME280;11495;55.610;12.100;2022-07-12T04:26:11;101120.31;;;15.36;0.00
22657;BME280;11495;55.610;12.100;2022-07-12T04:28:37;101108.25;;;15.46;0.00
22657;BME280;11495;55.610;12.100;2022-07-12T04:31:02;101109.31;;;15.50;0.00
22657;BME280;11495;55.610;12.100;2022-07-12T04:33:28;101101.19;;;15.54;0.00
22657;BME280;11495;55.610;12.100;2022-07-12T04:35:54;101095.88;;;15.57;0.00
22657;BME280;11495;55.610;12.100;2022-07-12T04:38:19;101087.75;;;15.66;0.00
22657;BME280;11495;55.610;12.100;2022-07-12T04:40:45;101076.66;;;15.66;0.00
22657;BME280;11495;55.610;12.100;2022-07-12T04:43:10;101081.06;;;15.67;0.00
22657;BME280;11495;55.610;12.100;2022-07-12T04:45:35;101080.50;;;15.84;0.00
22657;BME280;11495;55.610;12.100;2022-07-12T04:48:01;101081.22;;;15.89;0.00
22657;BME280;11495;55.610;12.100;2022-07-12T04:50:27;101084.25;;;16.07;0.00
22657;BME280;11495;55.610;12.100;2022-07-12T04:52:52;101071.50;;;16.19;0.00
22657;BME280;11495;55.610;12.100;2022-07-12T04:55:17;101075.00;;;16.25;0.00
22657;BME280;11495;55.610;12.100;2022-07-12T04:57:43;101071.53;;;16.33;0.00
22657;BME280;11495;55.610;12.100;2022-07-12T05:00:09;101084.66;;;16.27;0.00
22657;BME280;11495;55.610;12.100;2022-07-12T05:02:34;101092.59;;;16.34;0.00
22657;BME280;11495;55.610;12.100;2022-07-12T05:05:00;101102.66;;;16.44;0.00
22657;BME280;11495;55.610;12.100;2022-07-12T05:07:25;101124.06;;;16.43;0.00
22657;BME280;11495;55.610;12.100;2022-07-12T05:09:51;101114.91;;;16.43;0.00
22657;BME280;11495;55.610;12.100;2022-07-12T05:12:17;101145.25;;;16.39;0.00
22657;BME280;11495;55.610;12.100;2022-07-12T05:14:43;101152.75;;;16.52;0.00
22657;BME280;11495;55.610;12.100;2022-07-12T05:17:08;101157.72;;;16.69;0.00
22657;BME280;11495;55.610;12.100;2022-07-12T05:19:34;101184.84;;;16.58;0.00
22657;BME280;11495;55.610;12.100;2022-07-12T05:21:59;101200.19;;;16.56;0.00
22657;BME280;11495;55.610;12.100;2022-07-12T05:24:25;101214.00;;;16.75;0.00
22657;BME280;11495;55.610;12.100;2022-07-12T05:26:50;101231.62;;;16.98;0.00
22657;BME280;11495;55.610;12.100;2022-07-12T05:29:16;101257.66;;;17.16;0.00
22657;BME280;11495;55.610;12.100;2022-07-12T05:31:41;101271.13;;;17.36;0.00
22657;BME280;11495;55.610;12.100;2022-07-12T05:34:06;101310.66;;;17.60;0.00
22657;BME280;11495;55.610;12.100;2022-07-12T05:36:32;101356.09;;;17.69;0.00
22657;BME280;11495;55.610;12.100;2022-07-12T05:38:57;101417.25;;;17.75;0.00
22657;BME280;11495;55.610;12.100;2022-07-12T05:41:23;101482.69;;;17.72;0.00
22657;BME280;11495;55.610;12.100;2022-07-12T05:43:48;101544.22;;;17.84;0.00
22657;BME280;11495;55.610;12.100;2022-07-12T05:46:13;101613.22;;;18.01;0.00
22657;BME280;11495;55.610;12.100;2022-07-12T05:48:39;101669.56;;;18.25;0.00
22657;BME280;11495;55.610;12.100;2022-07-12T05:51:04;101742.66;;;18.17;0.00
22657;BME280;11495;55.610;12.100;2022-07-12T05:53:49;101806.56;;;18.28;0.00
22657;BME280;11495;55.610;12.100;2022-07-12T05:56:14;101857.53;;;18.61;0.00
22657;BME280;11495;55.610;12.100;2022-07-12T05:58:40;101908.31;;;18.76;0.00
22657;BME280;11495;55.610;12.100;2022-07-12T06:01:05;101956.00;;;18.75;0.00
22657;BME280;11495;55.610;12.100;2022-07-12T06:03:32;101989.09;;;18.82;0.00
22657;BME280;11495;55.610;12.100;2022-07-12T06:05:57;102019.75;;;18.82;0.00
22657;BME280;11495;55.610;12.100;2022-07-12T06:08:22;102039.09;;;18.73;0.00
22657;BME280;11495;55.610;12.100;2022-07-12T06:10:48;102049.19;;;18.69;0.00
22657;BME280;11495;55.610;12.100;2022-07-12T06:13:14;102047.97;;;18.94;0.00
22657;BME280;11495;55.610;12.100;2022-07-12T06:15:39;102059.06;;;18.99;0.00
22657;BME280;11495;55.610;12.100;2022-07-12T06:18:05;102064.81;;;18.89;0.00
22657;BME280;11495;55.610;12.100;2022-07-12T06:20:30;102072.19;;;18.79;0.00
22657;BME280;11495;55.610;12.100;2022-07-12T06:22:56;102062.09;;;18.84;0.00
22657;BME280;11495;55.610;12.100;2022-07-12T06:25:22;102060.28;;;19.12;0.00
22657;BME280;11495;55.610;12.100;2022-07-12T06:27:48;102081.31;;;19.04;0.00
22657;BME280;11495;55.610;12.100;2022-07-12T06:30:20;102079.25;;;19.28;0.00
22657;BME280;11495;55.610;12.100;2022-07-12T06:32:47;102075.78;;;19.36;0.00
22657;BME280;11495;55.610;12.100;2022-07-12T06:35:13;102079.06;;;19.57;0.00
22657;BME280;11495;55.610;12.100;2022-07-12T06:37:38;102082.75;;;19.20;0.00
22657;BME280;11495;55.610;12.100;2022-07-12T06:40:04;102078.84;;;19.54;0.00
22657;BME280;11495;55.610;12.100;2022-07-12T06:42:30;102076.34;;;19.71;0.00
22657;BME280;11495;55.610;12.100;2022-07-12T06:44:55;102080.78;;;19.72;0.00
22657;BME280;11495;55.610;12.100;2022-07-12T06:47:21;102076.78;;;19.92;0.00
22657;BME280;11495;55.610;12.100;2022-07-12T06:49:46;102071.50;;;19.90;0.00
22657;BME280;11495;55.610;12.100;2022-07-12T06:52:12;102070.03;;;19.93;0.00
22657;BME280;11495;55.610;12.100;2022-07-12T06:54:37;102069.47;;;20.37;0.00
22657;BME280;11495;55.610;12.100;2022-07-12T06:57:03;102069.56;;;20.32;0.00
22657;BME280;11495;55.610;12.100;2022-07-12T06:59:28;102066.47;;;20.20;0.00
22657;BME280;11495;55.610;12.100;2022-07-12T07:01:53;102054.88;;;20.13;0.00
22657;BME280;11495;55.610;12.100;2022-07-12T07:04:21;102051.34;;;20.07;0.00
22657;BME280;11495;55.610;12.100;2022-07-12T07:06:47;102048.22;;;20.09;0.00
22657;BME280;11495;55.610;12.100;2022-07-12T07:09:12;102051.88;;;20.23;0.00
22657;BME280;11495;55.610;12.100;2022-07-12T07:11:37;102058.59;;;20.08;0.00
22657;BME280;11495;55.610;12.100;2022-07-12T07:14:03;102045.00;;;20.02;0.00
22657;BME280;11495;55.610;12.100;2022-07-12T07:16:29;102041.72;;;20.00;0.00
22657;BME280;11495;55.610;12.100;2022-07-12T07:18:54;102047.09;;;20.37;0.00
22657;BME280;11495;55.610;12.100;2022-07-12T07:21:20;102054.03;;;20.40;0.00
22657;BME280;11495;55.610;12.100;2022-07-12T07:23:45;102043.72;;;20.90;0.00
22657;BME280;11495;55.610;12.100;2022-07-12T07:26:11;102033.03;;;20.92;0.00
22657;BME280;11495;55.610;12.100;2022-07-12T07:28:36;102023.91;;;20.64;0.00
22657;BME280;11495;55.610;12.100;2022-07-12T07:31:22;102012.53;;;20.83;0.00
22657;BME280;11495;55.610;12.100;2022-07-12T07:33:47;101996.31;;;20.85;0.00
22657;BME280;11495;55.610;12.100;2022-07-12T07:36:12;101992.09;;;21.19;0.00
22657;BME280;11495;55.610;12.100;2022-07-12T07:38:38;101984.38;;;21.24;0.00
22657;BME280;11495;55.610;12.100;2022-07-12T07:41:03;101985.66;;;21.18;0.00
22657;BME280;11495;55.610;12.100;2022-07-12T07:43:29;101979.25;;;21.18;0.00
22657;BME280;11495;55.610;12.100;2022-07-12T07:45:54;101974.84;;;21.48;0.00
22657;BME280;11495;55.610;12.100;2022-07-12T07:48:20;101969.91;;;21.45;0.00
22657;BME280;11495;55.610;12.100;2022-07-12T07:50:45;101954.53;;;20.89;0.00
22657;BME280;11495;55.610;12.100;2022-07-12T07:53:10;101945.50;;;21.14;0.00
22657;BME280;11495;55.610;12.100;2022-07-12T07:55:36;101936.97;;;21.50;0.00
22657;BME280;11495;55.610;12.100;2022-07-12T07:58:01;101939.47;;;20.98;0.00
22657;BME280;11495;55.610;12.100;2022-07-12T08:00:27;101935.00;;;20.97;0.00
22657;BME280;11495;55.610;12.100;2022-07-12T08:02:57;101928.87;;;21.18;0.00
22657;BME280;11495;55.610;12.100;2022-07-12T08:05:23;101933.47;;;21.14;0.00
22657;BME280;11495;55.610;12.100;2022-07-12T08:07:49;101932.19;;;21.20;0.00
22657;BME280;11495;55.610;12.100;2022-07-12T08:10:14;101935.50;;;21.44;0.00
22657;BME280;11495;55.610;12.100;2022-07-12T08:12:39;101929.72;;;21.49;0.00
22657;BME280;11495;55.610;12.100;2022-07-12T08:15:05;101930.03;;;21.39;0.00
22657;BME280;11495;55.610;12.100;2022-07-12T08:17:31;101927.88;;;21.84;0.00
22657;BME280;11495;55.610;12.100;2022-07-12T08:19:57;101932.81;;;22.19;0.00
22657;BME280;11495;55.610;12.100;2022-07-12T08:22:22;101930.81;;;21.71;0.00
22657;BME280;11495;55.610;12.100;2022-07-12T08:24:47;101940.69;;;22.25;0.00
22657;BME280;11495;55.610;12.100;2022-07-12T08:27:13;101938.28;;;22.76;0.00
22657;BME280;11495;55.610;12.100;2022-07-12T08:29:38;101933.62;;;22.80;0.00
22657;BME280;11495;55.610;12.100;2022-07-12T08:32:04;101937.12;;;22.59;0.00
22657;BME280;11495;55.610;12.100;2022-07-12T08:34:30;101923.75;;;22.91;0.00
22657;BME280;11495;55.610;12.100;2022-07-12T08:36:56;101847.28;;;23.11;0.00
22657;BME280;11495;55.610;12.100;2022-07-12T08:39:21;101975.87;;;23.26;0.00
22657;BME280;11495;55.610;12.100;2022-07-12T08:41:46;101515.94;;;23.08;0.00
22657;BME280;11495;55.610;12.100;2022-07-12T08:44:12;101111.03;;;22.83;0.00
22657;BME280;11495;55.610;12.100;2022-07-12T08:46:37;100728.56;;;23.03;0.00
22657;BME280;11495;55.610;12.100;2022-07-12T08:49:06;100431.78;;;22.93;0.00
22657;BME280;11495;55.610;12.100;2022-07-12T08:51:35;100521.56;;;22.93;0.00
22657;BME280;11495;55.610;12.100;2022-07-12T08:54:11;100568.53;;;23.15;0.00
22657;BME280;11495;55.610;12.100;2022-07-12T08:56:42;100636.66;;;23.16;0.00
22657;BME280;11495;55.610;12.100;2022-07-12T08:59:13;100766.84;;;23.43;0.00
22657;BME280;11495;55.610;12.100;2022-07-12T09:01:53;100853.09;;;23.14;0.00
22657;BME280;11495;55.610;12.100;2022-07-12T09:04:19;100932.91;;;23.01;0.00
22657;BME280;11495;55.610;12.100;2022-07-12T09:06:46;100935.81;;;23.05;0.00
22657;BME280;11495;55.610;12.100;2022-07-12T09:09:11;100963.72;;;23.57;0.00
22657;BME280;11495;55.610;12.100;2022-07-12T09:11:49;101082.19;;;23.47;0.00
22657;BME280;11495;55.610;12.100;2022-07-12T09:14:18;101099.41;;;23.33;0.00
22657;BME280;11495;55.610;12.100;2022-07-12T09:17:01;101144.31;;;23.86;0.00
22657;BME280;11495;55.610;12.100;2022-07-12T09:19:28;101209.69;;;23.98;0.00
22657;BME280;11495;55.610;12.100;2022-07-12T09:21:54;101227.13;;;23.76;0.00
22657;BME280;11495;55.610;12.100;2022-07-12T09:24:23;101223.37;;;23.72;0.00
22657;BME280;11495;55.610;12.100;2022-07-12T09:26:53;101203.69;;;24.12;0.00
22657;BME280;11495;55.610;12.100;2022-07-12T09:29:18;101210.41;;;23.67;0.00
22657;BME280;11495;55.610;12.100;2022-07-12T09:31:50;101207.38;;;24.00;0.00
22657;BME280;11495;55.610;12.100;2022-07-12T09:34:34;101226.09;;;24.24;0.00
22657;BME280;11495;55.610;12.100;2022-07-12T09:37:19;101246.16;;;23.82;0.00
22657;BME280;11495;55.610;12.100;2022-07-12T09:39:45;101207.91;;;23.66;0.00
22657;BME280;11495;55.610;12.100;2022-07-12T09:42:12;101210.81;;;23.81;0.00
22657;BME280;11495;55.610;12.100;2022-07-12T09:44:38;101184.50;;;23.74;0.00
22657;BME280;11495;55.610;12.100;2022-07-12T09:47:11;101173.53;;;23.97;0.00
22657;BME280;11495;55.610;12.100;2022-07-12T09:49:39;101191.19;;;23.69;0.00
22657;BME280;11495;55.610;12.100;2022-07-12T09:52:05;101206.31;;;23.40;0.00
22657;BME280;11495;55.610;12.100;2022-07-12T09:54:34;101195.22;;;23.32;0.00
22657;BME280;11495;55.610;12.100;2022-07-12T09:57:04;101208.56;;;23.22;0.00
22657;BME280;11495;55.610;12.100;2022-07-12T09:59:34;101222.47;;;23.43;0.00
22657;BME280;11495;55.610;12.100;2022-07-12T10:02:00;101219.25;;;23.57;0.00
22657;BME280;11495;55.610;12.100;2022-07-12T10:04:29;101203.88;;;23.26;0.00
22657;BME280;11495;55.610;12.100;2022-07-12T10:06:56;101234.50;;;23.44;0.00
22657;BME280;11495;55.610;12.100;2022-07-12T10:09:23;101238.50;;;23.43;0.00
22657;BME280;11495;55.610;12.100;2022-07-12T10:11:49;101251.50;;;23.60;0.00
22657;BME280;11495;55.610;12.100;2022-07-12T10:14:15;101252.50;;;23.55;0.00
22657;BME280;11495;55.610;12.100;2022-07-12T10:16:42;101263.06;;;23.34;0.00
22657;BME280;11495;55.610;12.100;2022-07-12T10:19:30;101281.31;;;23.76;0.00
22657;BME280;11495;55.610;12.100;2022-07-12T10:21:59;101263.28;;;23.16;0.00
22657;BME280;11495;55.610;12.100;2022-07-12T10:29:50;101334.66;;;24.01;0.00
22657;BME280;11495;55.610;12.100;2022-07-12T10:32:22;101393.66;;;23.89;0.00
22657;BME280;11495;55.610;12.100;2022-07-12T10:35:15;101439.84;;;23.54;0.00
22657;BME280;11495;55.610;12.100;2022-07-12T10:40:36;101534.56;;;23.66;0.00
22657;BME280;11495;55.610;12.100;2022-07-12T10:58:33;101722.34;;;24.51;0.00
22657;BME280;11495;55.610;12.100;2022-07-12T11:00:59;101687.53;;;24.68;0.00
22657;BME280;11495;55.610;12.100;2022-07-12T11:03:30;101681.00;;;25.13;0.00
22657;BME280;11495;55.610;12.100;2022-07-12T11:06:02;101682.66;;;23.99;0.00
22657;BME280;11495;55.610;12.100;2022-07-12T11:08:28;101669.34;;;24.41;0.00
22657;BME280;11495;55.610;12.100;2022-07-12T11:10:55;101677.63;;;25.07;0.00
22657;BME280;11495;55.610;12.100;2022-07-12T11:13:22;101680.28;;;24.67;0.00
22657;BME280;11495;55.610;12.100;2022-07-12T11:15:58;101670.91;;;25.24;0.00
22657;BME280;11495;55.610;12.100;2022-07-12T11:18:31;101674.13;;;25.38;0.00
22657;BME280;11495;55.610;12.100;2022-07-12T11:20:58;101673.34;;;25.78;0.00
22657;BME280;11495;55.610;12.100;2022-07-12T11:23:24;101672.44;;;25.74;0.00
22657;BME280;11495;55.610;12.100;2022-07-12T11:25:53;101668.81;;;25.89;0.00
22657;BME280;11495;55.610;12.100;2022-07-12T11:28:20;101671.72;;;26.21;0.00
22657;BME280;11495;55.610;12.100;2022-07-12T11:30:52;101656.91;;;25.68;0.00
22657;BME280;11495;55.610;12.100;2022-07-12T11:33:18;101665.09;;;25.85;0.00
22657;BME280;11495;55.610;12.100;2022-07-12T11:35:44;101660.19;;;25.42;0.00
22657;BME280;11495;55.610;12.100;2022-07-12T11:38:11;101650.69;;;26.02;0.00
22657;BME280;11495;55.610;12.100;2022-07-12T11:40:36;101653.06;;;25.60;0.00
22657;BME280;11495;55.610;12.100;2022-07-12T11:43:03;101648.94;;;25.30;0.00
22657;BME280;11495;55.610;12.100;2022-07-12T11:45:31;101651.97;;;25.77;0.00
22657;BME280;11495;55.610;12.100;2022-07-12T11:47:59;101656.72;;;25.48;0.00
22657;BME280;11495;55.610;12.100;2022-07-12T11:50:25;101646.03;;;25.54;0.00
22657;BME280;11495;55.610;12.100;2022-07-12T11:52:50;101643.97;;;25.79;0.00
22657;BME280;11495;55.610;12.100;2022-07-12T11:55:16;101634.81;;;25.82;0.00
22657;BME280;11495;55.610;12.100;2022-07-12T11:57:42;101637.88;;;25.77;0.00
22657;BME280;11495;55.610;12.100;2022-07-12T12:02:43;101635.06;;;25.65;0.00
22657;BME280;11495;55.610;12.100;2022-07-12T12:05:09;101634.25;;;25.64;0.00
22657;BME280;11495;55.610;12.100;2022-07-12T12:07:35;101638.84;;;25.57;0.00
22657;BME280;11495;55.610;12.100;2022-07-12T12:10:11;101643.06;;;25.75;0.00
22657;BME280;11495;55.610;12.100;2022-07-12T12:12:55;101635.19;;;25.96;0.00
22657;BME280;11495;55.610;12.100;2022-07-12T12:15:31;101636.09;;;25.44;0.00
22657;BME280;11495;55.610;12.100;2022-07-12T12:17:59;101634.50;;;25.99;0.00
22657;BME280;11495;55.610;12.100;2022-07-12T12:20:30;101639.12;;;25.52;0.00
22657;BME280;11495;55.610;12.100;2022-07-12T12:23:16;101640.25;;;25.63;0.00
22657;BME280;11495;55.610;12.100;2022-07-12T12:25:42;101643.87;;;25.63;0.00
22657;BME280;11495;55.610;12.100;2022-07-12T12:28:08;101638.16;;;26.16;0.00
22657;BME280;11495;55.610;12.100;2022-07-12T12:30:35;101638.53;;;25.86;0.00
22657;BME280;11495;55.610;12.100;2022-07-12T12:33:12;101637.19;;;26.40;0.00
22657;BME280;11495;55.610;12.100;2022-07-12T12:35:38;101650.34;;;25.64;0.00
22657;BME280;11495;55.610;12.100;2022-07-12T12:38:14;101637.22;;;25.56;0.00
22657;BME280;11495;55.610;12.100;2022-07-12T12:40:40;101642.69;;;25.76;0.00
22657;BME280;11495;55.610;12.100;2022-07-12T12:43:18;101631.66;;;25.99;0.00
22657;BME280;11495;55.610;12.100;2022-07-12T12:48:20;101629.69;;;26.16;0.00
22657;BME280;11495;55.610;12.100;2022-07-12T12:50:47;101629.28;;;25.86;0.00
22657;BME280;11495;55.610;12.100;2022-07-12T12:53:18;101624.81;;;26.44;0.00
22657;BME280;11495;55.610;12.100;2022-07-12T12:55:46;101629.50;;;26.09;0.00
22657;BME280;11495;55.610;12.100;2022-07-12T12:58:13;101614.66;;;26.12;0.00
22657;BME280;11495;55.610;12.100;2022-07-12T13:00:40;101623.41;;;26.22;0.00
22657;BME280;11495;55.610;12.100;2022-07-12T13:03:07;101606.22;;;26.12;0.00
22657;BME280;11495;55.610;12.100;2022-07-12T13:05:33;101617.19;;;25.85;0.00
22657;BME280;11495;55.610;12.100;2022-07-12T13:07:59;101603.13;;;26.17;0.00
22657;BME280;11495;55.610;12.100;2022-07-12T13:10:24;101602.50;;;26.23;0.00
22657;BME280;11495;55.610;12.100;2022-07-12T13:12:51;101612.59;;;26.56;0.00
22657;BME280;11495;55.610;12.100;2022-07-12T13:15:17;101603.31;;;26.24;0.00
22657;BME280;11495;55.610;12.100;2022-07-12T13:17:43;101602.63;;;26.43;0.00